sensor_id;sensor_type;location;lat;lon;timestamp;temperature;humidity
44487;DHT22;30191;50.908;6.962;2022-11-15T00:00:54;11.20;99.90
44487;DHT22;30191;50.908;6.962;2022-11-15T00:03:22;11.20;99.90
44487;DHT22;30191;50.908;6.962;2022-11-15T00:05:48;11.20;99.90
44487;DHT22;30191;50.908;6.962;2022-11-15T00:08:14;11.20;99.90
44487;DHT22;30191;50.908;6.962;2022-11-15T00:10:39;11.30;99.90
44487;DHT22;30191;50.908;6.962;2022-11-15T00:13:10;11.30;99.90
44487;DHT22;30191;50.908;6.962;2022-11-15T00:15:40;11.30;99.90
44487;DHT22;30191;50.908;6.962;2022-11-15T00:18:10;11.30;99.90
44487;DHT22;30191;50.908;6.962;2022-11-15T00:20:37;11.30;99.90
44487;DHT22;30191;50.908;6.962;2022-11-15T00:23:06;11.30;99.90
44487;DHT22;30191;50.908;6.962;2022-11-15T00:25:32;11.40;99.90
44487;DHT22;30191;50.908;6.962;2022-11-15T00:27:59;11.40;99.90
44487;DHT22;30191;50.908;6.962;2022-11-15T00:30:25;11.40;99.90
44487;DHT22;30191;50.908;6.962;2022-11-15T00:32:51;11.40;99.90
44487;DHT22;30191;50.908;6.962;2022-11-15T00:35:17;11.40;99.90
44487;DHT22;30191;50.908;6.962;2022-11-15T00:37:43;11.30;99.90
44487;DHT22;30191;50.908;6.962;2022-11-15T00:40:09;11.40;99.90
44487;DHT22;30191;50.908;6.962;2022-11-15T00:42:35;11.50;99.90
44487;DHT22;30191;50.908;6.962;2022-11-15T00:45:01;11.50;99.90
44487;DHT22;30191;50.908;6.962;2022-11-15T00:47:27;11.50;99.90
44487;DHT22;30191;50.908;6.962;2022-11-15T00:49:52;11.50;99.90
44487;DHT22;30191;50.908;6.962;2022-11-15T00:52:18;11.50;99.90
44487;DHT22;30191;50.908;6.962;2022-11-15T00:54:44;11.50;99.90
44487;DHT22;30191;50.908;6.962;2022-11-15T00:57:09;11.50;99.90
44487;DHT22;30191;50.908;6.962;2022-11-15T00:59:35;11.50;99.90
44487;DHT22;30191;50.908;6.962;2022-11-15T01:02:01;11.50;99.90
44487;DHT22;30191;50.908;6.962;2022-11-15T01:04:27;11.50;99.90
44487;DHT22;30191;50.908;6.962;2022-11-15T01:06:52;11.60;99.90
44487;DHT22;30191;50.908;6.962;2022-11-15T01:09:18;11.60;99.90
44487;DHT22;30191;50.908;6.962;2022-11-15T01:11:44;11.60;99.90
44487;DHT22;30191;50.908;6.962;2022-11-15T01:14:09;11.60;99.90
44487;DHT22;30191;50.908;6.962;2022-11-15T01:16:35;11.60;99.90
44487;DHT22;30191;50.908;6.962;2022-11-15T01:19:02;11.60;99.90
44487;DHT22;30191;50.908;6.962;2022-11-15T01:21:27;11.60;99.90
44487;DHT22;30191;50.908;6.962;2022-11-15T01:23:54;11.60;99.90
44487;DHT22;30191;50.908;6.962;2022-11-15T01:26:21;11.60;99.90
44487;DHT22;30191;50.908;6.962;2022-11-15T01:28:46;11.60;99.90
44487;DHT22;30191;50.908;6.962;2022-11-15T01:31:18;11.60;99.90
44487;DHT22;30191;50.908;6.962;2022-11-15T01:33:45;11.70;99.90
44487;DHT22;30191;50.908;6.962;2022-11-15T01:36:21;11.70;99.90
44487;DHT22;30191;50.908;6.962;2022-11-15T01:38:53;11.70;99.90
44487;DHT22;30191;50.908;6.962;2022-11-15T01:41:22;11.70;99.90
44487;DHT22;30191;50.908;6.962;2022-11-15T01:43:57;11.70;99.90
44487;DHT22;30191;50.908;6.962;2022-11-15T01:46:33;11.70;99.90
44487;DHT22;30191;50.908;6.962;2022-11-15T01:49:05;11.70;99.90
44487;DHT22;30191;50.908;6.962;2022-11-15T01:51:35;11.70;99.90
44487;DHT22;30191;50.908;6.962;2022-11-15T01:54:05;11.70;99.90
44487;DHT22;30191;50.908;6.962;2022-11-15T01:56:55;11.80;99.90
44487;DHT22;30191;50.908;6.962;2022-11-15T01:59:23;11.80;99.90
44487;DHT22;30191;50.908;6.962;2022-11-15T02:01:48;11.80;99.90
44487;DHT22;30191;50.908;6.962;2022-11-15T02:06:49;11.80;99.90
44487;DHT22;30191;50.908;6.962;2022-11-15T02:09:16;11.80;99.90
44487;DHT22;30191;50.908;6.962;2022-11-15T02:11:43;11.80;99.90
44487;DHT22;30191;50.908;6.962;2022-11-15T02:14:10;11.80;99.90
44487;DHT22;30191;50.908;6.962;2022-11-15T02:32:57;12.00;99.90
44487;DHT22;30191;50.908;6.962;2022-11-15T02:35:35;12.00;99.90
44487;DHT22;30191;50.908;6.962;2022-11-15T02:38:09;12.00;99.90
44487;DHT22;30191;50.908;6.962;2022-11-15T02:43:56;12.00;99.90
44487;DHT22;30191;50.908;6.962;2022-11-15T02:49:29;12.00;99.90
44487;DHT22;30191;50.908;6.962;2022-11-15T02:51:56;12.00;99.90
44487;DHT22;30191;50.908;6.962;2022-11-15T02:54:24;12.00;99.90
44487;DHT22;30191;50.908;6.962;2022-11-15T02:56:53;12.00;99.90
44487;DHT22;30191;50.908;6.962;2022-11-15T03:02:22;12.00;99.90
44487;DHT22;30191;50.908;6.962;2022-11-15T03:05:04;12.10;99.90
44487;DHT22;30191;50.908;6.962;2022-11-15T03:07:47;12.10;99.90
44487;DHT22;30191;50.908;6.962;2022-11-15T03:11:11;12.10;99.90
44487;DHT22;30191;50.908;6.962;2022-11-15T03:15:58;12.20;99.90
44487;DHT22;30191;50.908;6.962;2022-11-15T03:18:47;12.20;99.90
44487;DHT22;30191;50.908;6.962;2022-11-15T03:21:16;12.20;99.90
44487;DHT22;30191;50.908;6.962;2022-11-15T03:23:44;12.20;99.90
44487;DHT22;30191;50.908;6.962;2022-11-15T03:26:14;12.20;99.90
44487;DHT22;30191;50.908;6.962;2022-11-15T03:28:52;12.20;99.90
44487;DHT22;30191;50.908;6.962;2022-11-15T03:31:20;12.20;99.90
44487;DHT22;30191;50.908;6.962;2022-11-15T03:34:07;12.30;99.90
44487;DHT22;30191;50.908;6.962;2022-11-15T03:36:34;12.30;99.90
44487;DHT22;30191;50.908;6.962;2022-11-15T03:39:05;12.30;99.90
44487;DHT22;30191;50.908;6.962;2022-11-15T03:42:29;12.30;99.90
44487;DHT22;30191;50.908;6.962;2022-11-15T03:50:14;12.30;99.90
44487;DHT22;30191;50.908;6.962;2022-11-15T03:52:43;12.30;99.90
44487;DHT22;30191;50.908;6.962;2022-11-15T03:55:12;12.30;99.90
44487;DHT22;30191;50.908;6.962;2022-11-15T03:57:38;12.30;99.90
44487;DHT22;30191;50.908;6.962;2022-11-15T04:00:05;12.30;99.90
44487;DHT22;30191;50.908;6.962;2022-11-15T04:02:31;12.30;99.90
44487;DHT22;30191;50.908;6.962;2022-11-15T04:04:56;12.30;99.90
44487;DHT22;30191;50.908;6.962;2022-11-15T04:07:22;12.30;99.90
44487;DHT22;30191;50.908;6.962;2022-11-15T04:09:48;12.30;99.90
44487;DHT22;30191;50.908;6.962;2022-11-15T04:12:36;12.30;99.90
44487;DHT22;30191;50.908;6.962;2022-11-15T04:15:13;12.30;99.90
44487;DHT22;30191;50.908;6.962;2022-11-15T04:23:00;12.40;99.90
44487;DHT22;30191;50.908;6.962;2022-11-15T04:25:45;12.40;99.90
44487;DHT22;30191;50.908;6.962;2022-11-15T04:28:11;12.40;99.90
44487;DHT22;30191;50.908;6.962;2022-11-15T04:30:37;12.30;99.90
44487;DHT22;30191;50.908;6.962;2022-11-15T04:33:03;12.40;99.90
44487;DHT22;30191;50.908;6.962;2022-11-15T04:35:29;12.40;99.90
44487;DHT22;30191;50.908;6.962;2022-11-15T04:37:56;12.40;99.90
44487;DHT22;30191;50.908;6.962;2022-11-15T04:40:22;12.40;99.90
44487;DHT22;30191;50.908;6.962;2022-11-15T04:42:48;12.40;99.90
44487;DHT22;30191;50.908;6.962;2022-11-15T04:45:13;12.40;99.90
44487;DHT22;30191;50.908;6.962;2022-11-15T04:47:39;12.40;99.90
44487;DHT22;30191;50.908;6.962;2022-11-15T04:50:05;12.40;99.90
44487;DHT22;30191;50.908;6.962;2022-11-15T04:52:31;12.50;99.90
44487;DHT22;30191;50.908;6.962;2022-11-15T04:54:57;12.40;99.90
44487;DHT22;30191;50.908;6.962;2022-11-15T04:57:22;12.40;99.90
44487;DHT22;30191;50.908;6.962;2022-11-15T04:59:48;12.40;99.90
44487;DHT22;30191;50.908;6.962;2022-11-15T05:02:13;12.40;99.90
44487;DHT22;30191;50.908;6.962;2022-11-15T05:04:39;12.40;99.90
44487;DHT22;30191;50.908;6.962;2022-11-15T05:07:05;12.40;99.90
44487;DHT22;30191;50.908;6.962;2022-11-15T05:09:30;12.40;99.90
44487;DHT22;30191;50.908;6.962;2022-11-15T05:11:56;12.40;99.90
44487;DHT22;30191;50.908;6.962;2022-11-15T05:14:22;12.40;99.90
44487;DHT22;30191;50.908;6.962;2022-11-15T05:16:47;12.40;99.90
44487;DHT22;30191;50.908;6.962;2022-11-15T05:19:13;12.40;99.90
44487;DHT22;30191;50.908;6.962;2022-11-15T05:21:39;12.30;99.90
44487;DHT22;30191;50.908;6.962;2022-11-15T05:24:05;12.30;99.90
44487;DHT22;30191;50.908;6.962;2022-11-15T05:26:31;12.30;99.90
44487;DHT22;30191;50.908;6.962;2022-11-15T05:28:58;12.30;99.90
44487;DHT22;30191;50.908;6.962;2022-11-15T05:31:25;12.30;99.90
44487;DHT22;30191;50.908;6.962;2022-11-15T05:33:51;12.20;99.90
44487;DHT22;30191;50.908;6.962;2022-11-15T05:36:36;12.20;99.90
44487;DHT22;30191;50.908;6.962;2022-11-15T05:39:06;12.20;99.90
44487;DHT22;30191;50.908;6.962;2022-11-15T05:41:38;12.20;99.90
44487;DHT22;30191;50.908;6.962;2022-11-15T05:44:07;12.20;99.90
44487;DHT22;30191;50.908;6.962;2022-11-15T05:46:34;12.20;99.90
44487;DHT22;30191;50.908;6.962;2022-11-15T05:49:01;12.20;99.90
44487;DHT22;30191;50.908;6.962;2022-11-15T05:51:28;12.20;99.90
44487;DHT22;30191;50.908;6.962;2022-11-15T05:53:56;12.10;99.90
44487;DHT22;30191;50.908;6.962;2022-11-15T05:56:24;12.10;99.90
44487;DHT22;30191;50.908;6.962;2022-11-15T05:58:52;12.10;99.90
44487;DHT22;30191;50.908;6.962;2022-11-15T06:01:18;12.10;99.90
44487;DHT22;30191;50.908;6.962;2022-11-15T06:03:44;12.00;99.90
44487;DHT22;30191;50.908;6.962;2022-11-15T06:06:09;12.00;99.90
44487;DHT22;30191;50.908;6.962;2022-11-15T06:08:35;12.00;99.90
44487;DHT22;30191;50.908;6.962;2022-11-15T06:11:05;12.00;99.90
44487;DHT22;30191;50.908;6.962;2022-11-15T06:13:31;12.00;99.90
44487;DHT22;30191;50.908;6.962;2022-11-15T06:15:57;12.00;99.90
44487;DHT22;30191;50.908;6.962;2022-11-15T06:18:23;12.00;99.90
44487;DHT22;30191;50.908;6.962;2022-11-15T06:20:48;12.00;99.90
44487;DHT22;30191;50.908;6.962;2022-11-15T06:23:14;11.90;99.90
44487;DHT22;30191;50.908;6.962;2022-11-15T06:25:40;11.90;99.90
44487;DHT22;30191;50.908;6.962;2022-11-15T06:28:05;11.90;99.90
44487;DHT22;30191;50.908;6.962;2022-11-15T06:30:31;11.90;99.90
44487;DHT22;30191;50.908;6.962;2022-11-15T06:33:01;11.90;99.90
44487;DHT22;30191;50.908;6.962;2022-11-15T06:35:27;11.90;99.90
44487;DHT22;30191;50.908;6.962;2022-11-15T06:37:53;12.00;99.90
44487;DHT22;30191;50.908;6.962;2022-11-15T06:40:19;11.90;99.90
44487;DHT22;30191;50.908;6.962;2022-11-15T06:42:44;11.90;99.90
44487;DHT22;30191;50.908;6.962;2022-11-15T06:45:10;11.80;99.90
44487;DHT22;30191;50.908;6.962;2022-11-15T06:47:36;11.80;99.90
44487;DHT22;30191;50.908;6.962;2022-11-15T06:50:09;11.80;99.90
44487;DHT22;30191;50.908;6.962;2022-11-15T06:52:34;11.80;99.90
44487;DHT22;30191;50.908;6.962;2022-11-15T06:55:00;11.80;99.90
44487;DHT22;30191;50.908;6.962;2022-11-15T06:57:26;11.80;99.90
44487;DHT22;30191;50.908;6.962;2022-11-15T06:59:51;11.80;99.90
44487;DHT22;30191;50.908;6.962;2022-11-15T07:02:17;11.80;99.90
44487;DHT22;30191;50.908;6.962;2022-11-15T07:04:43;11.80;99.90
44487;DHT22;30191;50.908;6.962;2022-11-15T07:07:09;11.80;99.90
44487;DHT22;30191;50.908;6.962;2022-11-15T07:09:34;11.80;99.90
44487;DHT22;30191;50.908;6.962;2022-11-15T07:12:00;11.70;99.90
44487;DHT22;30191;50.908;6.962;2022-11-15T07:14:26;11.70;99.90
44487;DHT22;30191;50.908;6.962;2022-11-15T07:16:51;11.80;99.90
44487;DHT22;30191;50.908;6.962;2022-11-15T07:19:17;11.70;99.90
44487;DHT22;30191;50.908;6.962;2022-11-15T07:21:43;11.70;99.90
44487;DHT22;30191;50.908;6.962;2022-11-15T07:24:08;11.70;99.90
44487;DHT22;30191;50.908;6.962;2022-11-15T07:26:34;11.70;99.90
44487;DHT22;30191;50.908;6.962;2022-11-15T07:28:59;11.70;99.90
44487;DHT22;30191;50.908;6.962;2022-11-15T07:31:25;11.70;99.90
44487;DHT22;30191;50.908;6.962;2022-11-15T07:33:51;11.80;99.90
44487;DHT22;30191;50.908;6.962;2022-11-15T07:36:16;11.70;99.90
44487;DHT22;30191;50.908;6.962;2022-11-15T07:38:42;11.80;99.90
44487;DHT22;30191;50.908;6.962;2022-11-15T07:41:08;11.80;99.90
44487;DHT22;30191;50.908;6.962;2022-11-15T07:43:34;11.80;99.90
44487;DHT22;30191;50.908;6.962;2022-11-15T07:46:05;11.80;99.90
44487;DHT22;30191;50.908;6.962;2022-11-15T07:48:31;11.80;99.90
44487;DHT22;30191;50.908;6.962;2022-11-15T07:50:56;11.90;99.90
44487;DHT22;30191;50.908;6.962;2022-11-15T07:53:22;11.90;99.90
44487;DHT22;30191;50.908;6.962;2022-11-15T07:55:47;11.90;99.90
44487;DHT22;30191;50.908;6.962;2022-11-15T07:58:13;12.00;99.90
44487;DHT22;30191;50.908;6.962;2022-11-15T08:00:39;12.00;99.90
44487;DHT22;30191;50.908;6.962;2022-11-15T08:03:10;12.00;99.90
44487;DHT22;30191;50.908;6.962;2022-11-15T08:05:40;12.00;99.90
44487;DHT22;30191;50.908;6.962;2022-11-15T08:08:07;12.10;99.90
44487;DHT22;30191;50.908;6.962;2022-11-15T08:10:33;12.10;99.90
44487;DHT22;30191;50.908;6.962;2022-11-15T08:13:05;12.10;99.90
44487;DHT22;30191;50.908;6.962;2022-11-15T08:15:32;12.20;99.90
44487;DHT22;30191;50.908;6.962;2022-11-15T08:18:05;12.20;99.90
44487;DHT22;30191;50.908;6.962;2022-11-15T08:20:32;12.20;99.90
44487;DHT22;30191;50.908;6.962;2022-11-15T08:22:59;12.20;99.90
44487;DHT22;30191;50.908;6.962;2022-11-15T08:25:26;12.20;99.90
44487;DHT22;30191;50.908;6.962;2022-11-15T08:27:54;12.20;99.90
44487;DHT22;30191;50.908;6.962;2022-11-15T08:30:19;12.20;99.90
44487;DHT22;30191;50.908;6.962;2022-11-15T08:32:45;12.30;99.90
44487;DHT22;30191;50.908;6.962;2022-11-15T08:35:11;12.30;99.90
44487;DHT22;30191;50.908;6.962;2022-11-15T08:37:37;12.30;99.90
44487;DHT22;30191;50.908;6.962;2022-11-15T08:40:03;12.30;99.90
44487;DHT22;30191;50.908;6.962;2022-11-15T08:42:29;12.30;99.90
44487;DHT22;30191;50.908;6.962;2022-11-15T08:44:55;12.30;99.90
44487;DHT22;30191;50.908;6.962;2022-11-15T08:47:20;12.40;99.90
44487;DHT22;30191;50.908;6.962;2022-11-15T08:49:46;12.40;99.90
44487;DHT22;30191;50.908;6.962;2022-11-15T08:52:12;12.40;99.90
44487;DHT22;30191;50.908;6.962;2022-11-15T08:54:38;12.40;99.90
44487;DHT22;30191;50.908;6.962;2022-11-15T08:57:04;12.40;99.90
44487;DHT22;30191;50.908;6.962;2022-11-15T08:59:30;12.50;99.90
44487;DHT22;30191;50.908;6.962;2022-11-15T09:01:55;12.40;99.90
44487;DHT22;30191;50.908;6.962;2022-11-15T09:04:21;12.50;99.90
44487;DHT22;30191;50.908;6.962;2022-11-15T09:06:46;12.50;99.90
44487;DHT22;30191;50.908;6.962;2022-11-15T09:09:12;12.50;99.90
44487;DHT22;30191;50.908;6.962;2022-11-15T09:11:38;12.60;99.90
44487;DHT22;30191;50.908;6.962;2022-11-15T09:14:03;12.60;99.90
44487;DHT22;30191;50.908;6.962;2022-11-15T09:16:30;12.60;99.90
44487;DHT22;30191;50.908;6.962;2022-11-15T09:18:56;12.60;99.90
44487;DHT22;30191;50.908;6.962;2022-11-15T09:21:22;12.60;99.90
44487;DHT22;30191;50.908;6.962;2022-11-15T09:23:50;12.70;99.90
44487;DHT22;30191;50.908;6.962;2022-11-15T09:26:17;12.70;99.90
44487;DHT22;30191;50.908;6.962;2022-11-15T09:28:43;12.70;99.90
44487;DHT22;30191;50.908;6.962;2022-11-15T09:31:09;12.80;99.90
44487;DHT22;30191;50.908;6.962;2022-11-15T09:33:35;12.80;99.90
44487;DHT22;30191;50.908;6.962;2022-11-15T09:36:04;12.80;99.90
44487;DHT22;30191;50.908;6.962;2022-11-15T09:38:30;12.90;99.90
44487;DHT22;30191;50.908;6.962;2022-11-15T09:46:24;13.00;99.90
44487;DHT22;30191;50.908;6.962;2022-11-15T09:48:57;13.00;99.90
44487;DHT22;30191;50.908;6.962;2022-11-15T09:51:28;13.00;99.90
44487;DHT22;30191;50.908;6.962;2022-11-15T09:54:11;13.00;99.90
44487;DHT22;30191;50.908;6.962;2022-11-15T09:56:42;13.10;99.90
44487;DHT22;30191;50.908;6.962;2022-11-15T10:04:34;13.10;99.90
44487;DHT22;30191;50.908;6.962;2022-11-15T10:07:06;13.10;99.90
44487;DHT22;30191;50.908;6.962;2022-11-15T10:09:56;13.10;99.90
44487;DHT22;30191;50.908;6.962;2022-11-15T10:12:25;13.10;99.90
44487;DHT22;30191;50.908;6.962;2022-11-15T10:15:02;13.10;99.90
44487;DHT22;30191;50.908;6.962;2022-11-15T10:20:46;13.20;99.90
44487;DHT22;30191;50.908;6.962;2022-11-15T10:23:15;13.20;99.90
44487;DHT22;30191;50.908;6.962;2022-11-15T10:25:41;13.20;99.90
44487;DHT22;30191;50.908;6.962;2022-11-15T10:30:50;13.30;99.90
44487;DHT22;30191;50.908;6.962;2022-11-15T10:33:34;13.30;99.90
44487;DHT22;30191;50.908;6.962;2022-11-15T10:43:45;13.50;99.90
44487;DHT22;30191;50.908;6.962;2022-11-15T10:46:22;13.50;99.90
44487;DHT22;30191;50.908;6.962;2022-11-15T10:48:48;13.50;99.90
44487;DHT22;30191;50.908;6.962;2022-11-15T10:51:23;13.60;99.90
44487;DHT22;30191;50.908;6.962;2022-11-15T10:53:54;13.60;99.90
44487;DHT22;30191;50.908;6.962;2022-11-15T10:56:24;13.60;99.90
44487;DHT22;30191;50.908;6.962;2022-11-15T10:58:54;13.60;99.90
44487;DHT22;30191;50.908;6.962;2022-11-15T11:01:25;13.60;99.90
44487;DHT22;30191;50.908;6.962;2022-11-15T11:06:26;13.70;99.90
44487;DHT22;30191;50.908;6.962;2022-11-15T11:08:58;13.70;99.90
44487;DHT22;30191;50.908;6.962;2022-11-15T11:11:25;13.70;99.90
44487;DHT22;30191;50.908;6.962;2022-11-15T11:14:12;13.80;99.90
44487;DHT22;30191;50.908;6.962;2022-11-15T11:16:46;13.80;99.90
44487;DHT22;30191;50.908;6.962;2022-11-15T11:21:54;13.90;99.90
44487;DHT22;30191;50.908;6.962;2022-11-15T11:32:24;14.20;99.90
44487;DHT22;30191;50.908;6.962;2022-11-15T11:37:39;14.40;99.90
44487;DHT22;30191;50.908;6.962;2022-11-15T11:47:43;14.60;99.90
44487;DHT22;30191;50.908;6.962;2022-11-15T11:50:20;14.70;99.90
44487;DHT22;30191;50.908;6.962;2022-11-15T11:58:18;15.10;99.90
44487;DHT22;30191;50.908;6.962;2022-11-15T12:01:10;15.10;99.90
44487;DHT22;30191;50.908;6.962;2022-11-15T12:03:41;15.20;99.90
44487;DHT22;30191;50.908;6.962;2022-11-15T12:11:55;15.40;99.90
44487;DHT22;30191;50.908;6.962;2022-11-15T12:17:28;15.50;99.90
44487;DHT22;30191;50.908;6.962;2022-11-15T12:20:02;15.60;99.90
44487;DHT22;30191;50.908;6.962;2022-11-15T12:30:21;15.90;99.90
44487;DHT22;30191;50.908;6.962;2022-11-15T12:32:58;15.90;99.90
44487;DHT22;30191;50.908;6.962;2022-11-15T12:35:37;15.90;99.90
44487;DHT22;30191;50.908;6.962;2022-11-15T12:38:04;15.90;99.90
44487;DHT22;30191;50.908;6.962;2022-11-15T12:40:37;15.90;99.90
44487;DHT22;30191;50.908;6.962;2022-11-15T12:45:38;15.90;99.90
44487;DHT22;30191;50.908;6.962;2022-11-15T13:01:07;16.00;99.90
44487;DHT22;30191;50.908;6.962;2022-11-15T13:03:33;16.00;99.90
44487;DHT22;30191;50.908;6.962;2022-11-15T13:06:02;16.00;99.90
44487;DHT22;30191;50.908;6.962;2022-11-15T13:08:44;16.00;99.90
44487;DHT22;30191;50.908;6.962;2022-11-15T13:11:48;16.00;99.90
44487;DHT22;30191;50.908;6.962;2022-11-15T13:14:40;15.90;99.90
44487;DHT22;30191;50.908;6.962;2022-11-15T13:17:35;15.90;99.90
44487;DHT22;30191;50.908;6.962;2022-11-15T13:22:46;15.90;99.90
44487;DHT22;30191;50.908;6.962;2022-11-15T13:28:24;15.70;99.90
44487;DHT22;30191;50.908;6.962;2022-11-15T13:30:54;15.70;99.90
44487;DHT22;30191;50.908;6.962;2022-11-15T13:35:54;15.80;99.90
44487;DHT22;30191;50.908;6.962;2022-11-15T13:39:00;15.70;99.90
44487;DHT22;30191;50.908;6.962;2022-11-15T13:41:23;15.60;99.90
44487;DHT22;30191;50.908;6.962;2022-11-15T13:43:50;15.50;99.90
44487;DHT22;30191;50.908;6.962;2022-11-15T13:46:25;15.40;99.90
44487;DHT22;30191;50.908;6.962;2022-11-15T13:49:04;15.30;99.90
44487;DHT22;30191;50.908;6.962;2022-11-15T13:51:52;15.30;99.90
44487;DHT22;30191;50.908;6.962;2022-11-15T13:54:28;15.20;99.90
44487;DHT22;30191;50.908;6.962;2022-11-15T13:56:56;15.10;99.90
44487;DHT22;30191;50.908;6.962;2022-11-15T13:59:29;15.10;99.90
44487;DHT22;30191;50.908;6.962;2022-11-15T14:01:59;15.10;99.90
44487;DHT22;30191;50.908;6.962;2022-11-15T14:04:28;15.10;99.90
44487;DHT22;30191;50.908;6.962;2022-11-15T14:06:57;15.10;99.90
44487;DHT22;30191;50.908;6.962;2022-11-15T14:09:40;15.10;99.90
44487;DHT22;30191;50.908;6.962;2022-11-15T14:12:30;15.00;99.90
44487;DHT22;30191;50.908;6.962;2022-11-15T14:14:58;15.00;99.90
44487;DHT22;30191;50.908;6.962;2022-11-15T14:19:57;14.90;99.90
44487;DHT22;30191;50.908;6.962;2022-11-15T14:22:28;14.80;99.90
44487;DHT22;30191;50.908;6.962;2022-11-15T14:25:17;14.80;99.90
44487;DHT22;30191;50.908;6.962;2022-11-15T14:30:51;14.80;99.90
44487;DHT22;30191;50.908;6.962;2022-11-15T14:33:27;14.70;99.90
44487;DHT22;30191;50.908;6.962;2022-11-15T14:35:57;14.70;99.90
44487;DHT22;30191;50.908;6.962;2022-11-15T14:38:24;14.70;99.90
44487;DHT22;30191;50.908;6.962;2022-11-15T14:40:50;14.70;99.90
44487;DHT22;30191;50.908;6.962;2022-11-15T14:43:16;14.70;99.90
44487;DHT22;30191;50.908;6.962;2022-11-15T14:45:42;14.70;99.90
44487;DHT22;30191;50.908;6.962;2022-11-15T14:48:08;14.70;99.90
44487;DHT22;30191;50.908;6.962;2022-11-15T14:50:34;14.70;99.90
44487;DHT22;30191;50.908;6.962;2022-11-15T14:53:00;14.80;99.90
44487;DHT22;30191;50.908;6.962;2022-11-15T14:55:31;14.80;99.90
44487;DHT22;30191;50.908;6.962;2022-11-15T14:57:59;14.80;99.90
44487;DHT22;30191;50.908;6.962;2022-11-15T15:00:27;14.80;99.90
44487;DHT22;30191;50.908;6.962;2022-11-15T15:02:53;14.80;99.90
44487;DHT22;30191;50.908;6.962;2022-11-15T15:07:45;14.70;99.90
44487;DHT22;30191;50.908;6.962;2022-11-15T15:10:11;14.70;99.90
44487;DHT22;30191;50.908;6.962;2022-11-15T15:12:38;14.70;99.90
44487;DHT22;30191;50.908;6.962;2022-11-15T15:15:04;14.60;99.90
44487;DHT22;30191;50.908;6.962;2022-11-15T15:17:30;14.60;99.90
44487;DHT22;30191;50.908;6.962;2022-11-15T15:19:55;14.60;99.90
44487;DHT22;30191;50.908;6.962;2022-11-15T15:22:21;14.60;99.90
44487;DHT22;30191;50.908;6.962;2022-11-15T15:24:51;14.60;99.90
44487;DHT22;30191;50.908;6.962;2022-11-15T15:27:16;14.60;99.90
44487;DHT22;30191;50.908;6.962;2022-11-15T15:29:42;14.50;99.90
44487;DHT22;30191;50.908;6.962;2022-11-15T15:32:09;14.50;99.90
44487;DHT22;30191;50.908;6.962;2022-11-15T15:34:35;14.50;99.90
44487;DHT22;30191;50.908;6.962;2022-11-15T15:39:39;14.40;99.90
44487;DHT22;30191;50.908;6.962;2022-11-15T15:42:04;14.40;99.90
44487;DHT22;30191;50.908;6.962;2022-11-15T15:44:30;14.40;99.90
44487;DHT22;30191;50.908;6.962;2022-11-15T15:46:56;14.40;99.90
44487;DHT22;30191;50.908;6.962;2022-11-15T15:49:23;14.40;99.90
44487;DHT22;30191;50.908;6.962;2022-11-15T15:51:48;14.40;99.90
44487;DHT22;30191;50.908;6.962;2022-11-15T15:54:14;14.30;99.90
44487;DHT22;30191;50.908;6.962;2022-11-15T15:56:40;14.40;99.90
44487;DHT22;30191;50.908;6.962;2022-11-15T15:59:05;14.40;99.90
44487;DHT22;30191;50.908;6.962;2022-11-15T16:01:31;14.40;99.90
44487;DHT22;30191;50.908;6.962;2022-11-15T16:03:56;14.40;99.90
44487;DHT22;30191;50.908;6.962;2022-11-15T16:06:34;14.40;99.90
44487;DHT22;30191;50.908;6.962;2022-11-15T16:09:01;14.40;99.90
44487;DHT22;30191;50.908;6.962;2022-11-15T16:11:27;14.30;99.90
44487;DHT22;30191;50.908;6.962;2022-11-15T16:13:52;14.30;99.90
44487;DHT22;30191;50.908;6.962;2022-11-15T16:16:19;14.30;99.90
44487;DHT22;30191;50.908;6.962;2022-11-15T16:18:46;14.30;99.90
44487;DHT22;30191;50.908;6.962;2022-11-15T16:21:12;14.30;99.90
44487;DHT22;30191;50.908;6.962;2022-11-15T16:23:37;14.30;99.90
44487;DHT22;30191;50.908;6.962;2022-11-15T16:26:21;14.30;99.90
44487;DHT22;30191;50.908;6.962;2022-11-15T16:28:47;14.30;99.90
44487;DHT22;30191;50.908;6.962;2022-11-15T16:31:13;14.30;99.90
44487;DHT22;30191;50.908;6.962;2022-11-15T16:33:39;14.30;99.90
44487;DHT22;30191;50.908;6.962;2022-11-15T16:36:22;14.30;99.90
44487;DHT22;30191;50.908;6.962;2022-11-15T16:38:48;14.30;99.90
44487;DHT22;30191;50.908;6.962;2022-11-15T16:41:15;14.20;99.90
44487;DHT22;30191;50.908;6.962;2022-11-15T16:43:46;14.20;99.90
44487;DHT22;30191;50.908;6.962;2022-11-15T16:46:16;14.20;99.90
44487;DHT22;30191;50.908;6.962;2022-11-15T16:48:42;14.20;99.90
44487;DHT22;30191;50.908;6.962;2022-11-15T16:51:08;14.20;99.90
44487;DHT22;30191;50.908;6.962;2022-11-15T16:53:35;14.20;99.90
44487;DHT22;30191;50.908;6.962;2022-11-15T16:56:00;14.20;99.90
44487;DHT22;30191;50.908;6.962;2022-11-15T16:58:26;14.20;99.90
44487;DHT22;30191;50.908;6.962;2022-11-15T17:00:53;14.20;99.90
44487;DHT22;30191;50.908;6.962;2022-11-15T17:03:23;14.20;99.90
44487;DHT22;30191;50.908;6.962;2022-11-15T17:05:50;14.20;99.90
44487;DHT22;30191;50.908;6.962;2022-11-15T17:08:16;14.20;99.90
44487;DHT22;30191;50.908;6.962;2022-11-15T17:10:41;14.20;99.90
44487;DHT22;30191;50.908;6.962;2022-11-15T17:13:11;14.20;99.90
44487;DHT22;30191;50.908;6.962;2022-11-15T17:15:38;14.20;99.90
44487;DHT22;30191;50.908;6.962;2022-11-15T17:18:04;14.20;99.90
44487;DHT22;30191;50.908;6.962;2022-11-15T17:20:31;14.20;99.90
44487;DHT22;30191;50.908;6.962;2022-11-15T17:22:57;14.20;99.90
44487;DHT22;30191;50.908;6.962;2022-11-15T17:25:25;14.10;99.90
44487;DHT22;30191;50.908;6.962;2022-11-15T17:27:51;14.20;99.90
44487;DHT22;30191;50.908;6.962;2022-11-15T17:30:17;14.20;99.90
44487;DHT22;30191;50.908;6.962;2022-11-15T17:32:44;14.20;99.90
44487;DHT22;30191;50.908;6.962;2022-11-15T17:35:12;14.20;99.90
44487;DHT22;30191;50.908;6.962;2022-11-15T17:37:38;14.20;99.90
44487;DHT22;30191;50.908;6.962;2022-11-15T17:40:04;14.20;99.90
44487;DHT22;30191;50.908;6.962;2022-11-15T17:42:30;14.20;99.90
44487;DHT22;30191;50.908;6.962;2022-11-15T17:44:56;14.10;99.90
44487;DHT22;30191;50.908;6.962;2022-11-15T17:47:21;14.10;99.90
44487;DHT22;30191;50.908;6.962;2022-11-15T17:49:47;14.10;99.90
44487;DHT22;30191;50.908;6.962;2022-11-15T17:52:13;14.10;99.90
44487;DHT22;30191;50.908;6.962;2022-11-15T17:54:38;14.10;99.90
44487;DHT22;30191;50.908;6.962;2022-11-15T17:57:04;14.10;99.90
44487;DHT22;30191;50.908;6.962;2022-11-15T17:59:29;14.10;99.90
44487;DHT22;30191;50.908;6.962;2022-11-15T18:01:55;14.00;99.90
44487;DHT22;30191;50.908;6.962;2022-11-15T18:04:21;14.00;99.90
44487;DHT22;30191;50.908;6.962;2022-11-15T18:06:52;14.00;99.90